sensor_id;sensor_type;location;lat;lon;timestamp;pressure;altitude;pressure_sealevel;temperature;humidity
28306;BME280;7516;43.570;1.448;2023-02-21T00:00:44;100063.72;;;9.30;98.56
28306;BME280;7516;43.570;1.448;2023-02-21T00:03:29;100060.41;;;9.28;99.11
28306;BME280;7516;43.570;1.448;2023-02-21T00:06:18;100071.03;;;9.27;98.75
28306;BME280;7516;43.570;1.448;2023-02-21T00:09:03;100067.91;;;9.23;99.53
28306;BME280;7516;43.570;1.448;2023-02-21T00:11:48;100071.66;;;9.21;99.45
28306;BME280;7516;43.570;1.448;2023-02-21T00:14:33;100078.81;;;9.19;99.15
28306;BME280;7516;43.570;1.448;2023-02-21T00:17:21;100064.25;;;9.16;99.79
28306;BME280;7516;43.570;1.448;2023-02-21T00:20:07;100060.19;;;9.14;99.16
28306;BME280;7516;43.570;1.448;2023-02-21T00:22:53;100064.75;;;9.12;99.24
28306;BME280;7516;43.570;1.448;2023-02-21T00:25:38;100056.22;;;9.10;99.67
28306;BME280;7516;43.570;1.448;2023-02-21T00:28:23;100053.59;;;9.10;99.03
28306;BME280;7516;43.570;1.448;2023-02-21T00:31:08;100050.31;;;9.07;99.72
28306;BME280;7516;43.570;1.448;2023-02-21T00:33:53;100057.53;;;9.05;99.50
28306;BME280;7516;43.570;1.448;2023-02-21T00:36:38;100049.97;;;9.02;99.12
28306;BME280;7516;43.570;1.448;2023-02-21T00:39:25;100053.69;;;9.00;100.00
28306;BME280;7516;43.570;1.448;2023-02-21T00:42:10;100048.81;;;8.97;99.71
28306;BME280;7516;43.570;1.448;2023-02-21T00:44:54;100049.91;;;8.94;99.60
28306;BME280;7516;43.570;1.448;2023-02-21T00:47:39;100050.06;;;8.93;100.00
28306;BME280;7516;43.570;1.448;2023-02-21T00:50:24;100043.34;;;8.90;99.84
28306;BME280;7516;43.570;1.448;2023-02-21T00:53:09;100038.13;;;8.90;99.50
28306;BME280;7516;43.570;1.448;2023-02-21T00:55:56;100041.06;;;8.87;99.83
28306;BME280;7516;43.570;1.448;2023-02-21T00:58:40;100033.38;;;8.86;99.67
28306;BME280;7516;43.570;1.448;2023-02-21T01:01:25;100025.69;;;8.84;99.76
28306;BME280;7516;43.570;1.448;2023-02-21T01:04:10;100024.03;;;8.83;99.77
28306;BME280;7516;43.570;1.448;2023-02-21T01:06:55;100022.38;;;8.82;99.96
28306;BME280;7516;43.570;1.448;2023-02-21T01:09:40;100007.69;;;8.81;100.00
28306;BME280;7516;43.570;1.448;2023-02-21T01:12:27;100006.03;;;8.80;100.00
28306;BME280;7516;43.570;1.448;2023-02-21T01:15:13;100006.38;;;8.77;100.00
28306;BME280;7516;43.570;1.448;2023-02-21T01:17:58;100006.50;;;8.76;100.00
28306;BME280;7516;43.570;1.448;2023-02-21T01:20:43;100008.31;;;8.75;100.00
28306;BME280;7516;43.570;1.448;2023-02-21T01:23:28;100011.06;;;8.74;100.00
28306;BME280;7516;43.570;1.448;2023-02-21T01:26:13;99995.53;;;8.72;100.00
28306;BME280;7516;43.570;1.448;2023-02-21T01:28:59;99999.94;;;8.72;100.00
28306;BME280;7516;43.570;1.448;2023-02-21T01:31:44;99994.88;;;8.70;100.00
28306;BME280;7516;43.570;1.448;2023-02-21T01:34:29;99999.28;;;8.70;100.00
28306;BME280;7516;43.570;1.448;2023-02-21T01:37:14;100002.06;;;8.68;100.00
28306;BME280;7516;43.570;1.448;2023-02-21T01:39:59;99997.66;;;8.68;100.00
28306;BME280;7516;43.570;1.448;2023-02-21T01:42:44;99998.75;;;8.66;100.00
28306;BME280;7516;43.570;1.448;2023-02-21T01:45:45;99994.50;;;8.65;100.00
28306;BME280;7516;43.570;1.448;2023-02-21T01:48:30;99981.44;;;8.65;100.00
28306;BME280;7516;43.570;1.448;2023-02-21T01:51:19;99986.69;;;8.65;100.00
28306;BME280;7516;43.570;1.448;2023-02-21T01:54:07;99979.81;;;8.64;100.00
28306;BME280;7516;43.570;1.448;2023-02-21T01:56:53;99985.03;;;8.64;100.00
28306;BME280;7516;43.570;1.448;2023-02-21T01:59:40;99973.75;;;8.63;100.00
28306;BME280;7516;43.570;1.448;2023-02-21T02:02:32;99975.56;;;8.63;100.00
28306;BME280;7516;43.570;1.448;2023-02-21T02:05:19;99973.91;;;8.62;100.00
28306;BME280;7516;43.570;1.448;2023-02-21T02:08:04;99967.91;;;8.61;100.00
28306;BME280;7516;43.570;1.448;2023-02-21T02:10:56;99966.06;;;8.62;100.00
28306;BME280;7516;43.570;1.448;2023-02-21T02:14:02;99964.28;;;8.62;100.00
28306;BME280;7516;43.570;1.448;2023-02-21T02:16:40;99953.84;;;8.62;100.00
28306;BME280;7516;43.570;1.448;2023-02-21T02:22:30;99944.38;;;8.61;100.00
28306;BME280;7516;43.570;1.448;2023-02-21T02:25:27;99948.59;;;8.62;100.00
28306;BME280;7516;43.570;1.448;2023-02-21T02:28:22;99941.59;;;8.63;100.00
28306;BME280;7516;43.570;1.448;2023-02-21T02:31:29;99942.56;;;8.62;100.00
28306;BME280;7516;43.570;1.448;2023-02-21T02:34:32;99931.16;;;8.63;100.00
28306;BME280;7516;43.570;1.448;2023-02-21T02:37:09;99932.78;;;8.64;100.00
28306;BME280;7516;43.570;1.448;2023-02-21T02:39:44;99929.22;;;8.65;100.00
28306;BME280;7516;43.570;1.448;2023-02-21T02:42:23;99927.56;;;8.64;100.00
28306;BME280;7516;43.570;1.448;2023-02-21T02:44:59;99933.63;;;8.64;100.00
28306;BME280;7516;43.570;1.448;2023-02-21T02:47:30;99923.00;;;8.66;100.00
28306;BME280;7516;43.570;1.448;2023-02-21T02:50:03;99921.38;;;8.65;100.00
28306;BME280;7516;43.570;1.448;2023-02-21T02:52:31;99912.72;;;8.64;100.00
28306;BME280;7516;43.570;1.448;2023-02-21T02:55:00;99913.53;;;8.65;100.00
28306;BME280;7516;43.570;1.448;2023-02-21T02:57:30;99909.13;;;8.65;100.00
28306;BME280;7516;43.570;1.448;2023-02-21T03:00:04;99911.59;;;8.67;100.00
28306;BME280;7516;43.570;1.448;2023-02-21T03:02:52;99914.22;;;8.67;100.00
28306;BME280;7516;43.570;1.448;2023-02-21T03:05:42;99908.00;;;8.68;100.00
28306;BME280;7516;43.570;1.448;2023-02-21T03:08:18;99912.41;;;8.67;100.00
28306;BME280;7516;43.570;1.448;2023-02-21T03:10:53;99915.19;;;8.66;100.00
28306;BME280;7516;43.570;1.448;2023-02-21T03:13:30;99916.00;;;8.66;100.00
28306;BME280;7516;43.570;1.448;2023-02-21T03:16:07;99909.13;;;8.65;100.00
28306;BME280;7516;43.570;1.448;2023-02-21T03:18:42;99915.19;;;8.66;100.00
28306;BME280;7516;43.570;1.448;2023-02-21T03:21:14;99908.97;;;8.67;100.00
28306;BME280;7516;43.570;1.448;2023-02-21T03:23:45;99912.41;;;8.67;100.00
28306;BME280;7516;43.570;1.448;2023-02-21T03:26:15;99905.41;;;8.68;100.00
28306;BME280;7516;43.570;1.448;2023-02-21T03:28:44;99901.00;;;8.68;100.00
28306;BME280;7516;43.570;1.448;2023-02-21T03:31:14;99903.59;;;8.68;100.00
28306;BME280;7516;43.570;1.448;2023-02-21T03:33:43;99900.84;;;8.70;100.00
28306;BME280;7516;43.570;1.448;2023-02-21T03:36:14;99887.94;;;8.68;100.00
28306;BME280;7516;43.570;1.448;2023-02-21T03:38:41;99889.56;;;8.70;100.00
28306;BME280;7516;43.570;1.448;2023-02-21T03:41:10;99889.41;;;8.71;100.00
28306;BME280;7516;43.570;1.448;2023-02-21T03:43:38;99885.00;;;8.72;100.00
28306;BME280;7516;43.570;1.448;2023-02-21T03:46:06;99881.56;;;8.71;100.00
28306;BME280;7516;43.570;1.448;2023-02-21T03:48:33;99877.34;;;8.70;100.00
28306;BME280;7516;43.570;1.448;2023-02-21T03:51:01;99881.56;;;8.71;100.00
28306;BME280;7516;43.570;1.448;2023-02-21T03:53:30;99873.09;;;8.69;100.00
28306;BME280;7516;43.570;1.448;2023-02-21T03:55:57;99870.47;;;8.69;100.00
28306;BME280;7516;43.570;1.448;2023-02-21T03:58:25;99873.09;;;8.69;100.00
28306;BME280;7516;43.570;1.448;2023-02-21T04:00:52;99871.44;;;8.68;100.00
28306;BME280;7516;43.570;1.448;2023-02-21T04:03:20;99866.22;;;8.68;100.00
28306;BME280;7516;43.570;1.448;2023-02-21T04:05:48;99872.25;;;8.68;100.00
28306;BME280;7516;43.570;1.448;2023-02-21T04:08:15;99873.22;;;8.67;100.00
28306;BME280;7516;43.570;1.448;2023-02-21T04:10:44;99868.16;;;8.66;100.00
28306;BME280;7516;43.570;1.448;2023-02-21T04:13:12;99878.59;;;8.66;100.00
28306;BME280;7516;43.570;1.448;2023-02-21T04:15:39;99867.34;;;8.65;100.00
28306;BME280;7516;43.570;1.448;2023-02-21T04:18:07;99863.75;;;8.66;100.00
28306;BME280;7516;43.570;1.448;2023-02-21T04:20:34;99861.13;;;8.66;100.00
28306;BME280;7516;43.570;1.448;2023-02-21T04:23:02;99865.53;;;8.66;100.00
28306;BME280;7516;43.570;1.448;2023-02-21T04:25:30;99863.91;;;8.65;100.00
28306;BME280;7516;43.570;1.448;2023-02-21T04:27:59;99861.28;;;8.65;100.00
28306;BME280;7516;43.570;1.448;2023-02-21T04:30:26;99868.16;;;8.66;100.00
28306;BME280;7516;43.570;1.448;2023-02-21T04:32:53;99868.16;;;8.66;100.00
28306;BME280;7516;43.570;1.448;2023-02-21T04:35:22;99874.06;;;8.68;100.00
28306;BME280;7516;43.570;1.448;2023-02-21T04:37:49;99863.59;;;8.68;100.00
28306;BME280;7516;43.570;1.448;2023-02-21T04:40:17;99862.78;;;8.67;100.00
28306;BME280;7516;43.570;1.448;2023-02-21T04:42:45;99869.81;;;8.67;100.00
28306;BME280;7516;43.570;1.448;2023-02-21T04:45:14;99875.03;;;8.67;100.00
28306;BME280;7516;43.570;1.448;2023-02-21T04:47:41;99868.97;;;8.66;100.00
28306;BME280;7516;43.570;1.448;2023-02-21T04:50:09;99866.38;;;8.66;100.00
28306;BME280;7516;43.570;1.448;2023-02-21T04:52:36;99872.56;;;8.65;100.00
28306;BME280;7516;43.570;1.448;2023-02-21T04:55:06;99870.91;;;8.64;100.00
28306;BME280;7516;43.570;1.448;2023-02-21T04:57:34;99869.28;;;8.63;100.00
28306;BME280;7516;43.570;1.448;2023-02-21T05:00:02;99878.91;;;8.63;100.00
28306;BME280;7516;43.570;1.448;2023-02-21T05:02:33;99871.41;;;8.60;100.00
28306;BME280;7516;43.570;1.448;2023-02-21T05:05:00;99868.78;;;8.60;100.00
28306;BME280;7516;43.570;1.448;2023-02-21T05:07:28;99867.97;;;8.59;100.00
28306;BME280;7516;43.570;1.448;2023-02-21T05:09:55;99860.28;;;8.58;100.00
28306;BME280;7516;43.570;1.448;2023-02-21T05:12:23;99849.84;;;8.58;100.00
28306;BME280;7516;43.570;1.448;2023-02-21T05:14:50;99855.88;;;8.58;100.00
28306;BME280;7516;43.570;1.448;2023-02-21T05:17:18;99852.44;;;8.58;100.00
28306;BME280;7516;43.570;1.448;2023-02-21T05:19:47;99841.03;;;8.59;100.00
28306;BME280;7516;43.570;1.448;2023-02-21T05:22:15;99847.22;;;8.58;100.00
28306;BME280;7516;43.570;1.448;2023-02-21T05:24:45;99847.06;;;8.59;100.00
28306;BME280;7516;43.570;1.448;2023-02-21T05:27:14;99839.09;;;8.61;100.00
28306;BME280;7516;43.570;1.448;2023-02-21T05:29:45;99841.38;;;8.64;100.00
28306;BME280;7516;43.570;1.448;2023-02-21T05:32:15;99842.19;;;8.64;100.00
28306;BME280;7516;43.570;1.448;2023-02-21T05:34:43;99850.84;;;8.65;100.00
28306;BME280;7516;43.570;1.448;2023-02-21T05:37:13;99852.63;;;8.64;100.00
28306;BME280;7516;43.570;1.448;2023-02-21T05:39:41;99843.97;;;8.64;100.00
28306;BME280;7516;43.570;1.448;2023-02-21T05:42:08;99844.78;;;8.64;100.00
28306;BME280;7516;43.570;1.448;2023-02-21T05:44:36;99844.78;;;8.64;100.00
28306;BME280;7516;43.570;1.448;2023-02-21T05:47:04;99846.44;;;8.65;100.00
28306;BME280;7516;43.570;1.448;2023-02-21T05:49:32;99848.22;;;8.65;100.00
28306;BME280;7516;43.570;1.448;2023-02-21T05:51:59;99838.44;;;8.67;100.00
28306;BME280;7516;43.570;1.448;2023-02-21T05:54:28;99843.69;;;8.67;100.00
28306;BME280;7516;43.570;1.448;2023-02-21T05:56:56;99837.47;;;8.68;100.00
28306;BME280;7516;43.570;1.448;2023-02-21T05:59:23;99840.75;;;8.70;100.00
28306;BME280;7516;43.570;1.448;2023-02-21T06:01:51;99842.38;;;8.71;100.00
28306;BME280;7516;43.570;1.448;2023-02-21T06:04:19;99836.16;;;8.72;100.00
28306;BME280;7516;43.570;1.448;2023-02-21T06:06:46;99841.25;;;8.74;100.00
28306;BME280;7516;43.570;1.448;2023-02-21T06:09:16;99843.72;;;8.75;100.00
28306;BME280;7516;43.570;1.448;2023-02-21T06:11:46;99846.31;;;8.75;100.00
28306;BME280;7516;43.570;1.448;2023-02-21T06:14:15;99854.16;;;8.75;100.00
28306;BME280;7516;43.570;1.448;2023-02-21T06:16:43;99866.25;;;8.76;100.00
28306;BME280;7516;43.570;1.448;2023-02-21T06:19:13;99864.47;;;8.77;100.00
28306;BME280;7516;43.570;1.448;2023-02-21T06:21:41;99868.72;;;8.78;100.00
28306;BME280;7516;43.570;1.448;2023-02-21T06:24:10;99860.88;;;8.78;100.00
28306;BME280;7516;43.570;1.448;2023-02-21T06:26:38;99856.47;;;8.78;100.00
28306;BME280;7516;43.570;1.448;2023-02-21T06:29:08;99859.72;;;8.80;100.00
28306;BME280;7516;43.570;1.448;2023-02-21T06:31:36;99846.50;;;8.82;100.00
28306;BME280;7516;43.570;1.448;2023-02-21T06:34:05;99852.56;;;8.82;100.00
28306;BME280;7516;43.570;1.448;2023-02-21T06:36:33;99850.59;;;8.84;100.00
28306;BME280;7516;43.570;1.448;2023-02-21T06:39:01;99842.63;;;8.86;100.00
28306;BME280;7516;43.570;1.448;2023-02-21T06:41:29;99841.47;;;8.88;100.00
28306;BME280;7516;43.570;1.448;2023-02-21T06:43:58;99838.53;;;8.91;100.00
28306;BME280;7516;43.570;1.448;2023-02-21T06:46:29;99839.22;;;8.93;100.00
28306;BME280;7516;43.570;1.448;2023-02-21T06:48:56;99833.00;;;8.94;100.00
28306;BME280;7516;43.570;1.448;2023-02-21T06:51:24;99837.25;;;8.95;100.00
28306;BME280;7516;43.570;1.448;2023-02-21T06:53:55;99832.03;;;8.95;100.00
28306;BME280;7516;43.570;1.448;2023-02-21T06:56:23;99826.81;;;8.95;100.00
28306;BME280;7516;43.570;1.448;2023-02-21T06:58:52;99833.69;;;8.96;100.00
28306;BME280;7516;43.570;1.448;2023-02-21T07:01:20;99830.88;;;8.98;100.00
28306;BME280;7516;43.570;1.448;2023-02-21T07:03:50;99824.69;;;8.99;100.00
28306;BME280;7516;43.570;1.448;2023-02-21T07:06:18;99825.34;;;9.01;100.00
28306;BME280;7516;43.570;1.448;2023-02-21T07:08:46;99824.38;;;9.02;100.00
28306;BME280;7516;43.570;1.448;2023-02-21T07:11:14;99823.25;;;9.04;100.00
28306;BME280;7516;43.570;1.448;2023-02-21T07:13:46;99825.53;;;9.07;100.00
28306;BME280;7516;43.570;1.448;2023-02-21T07:16:15;99825.38;;;9.09;100.00
28306;BME280;7516;43.570;1.448;2023-02-21T07:18:44;99821.63;;;9.12;100.00
28306;BME280;7516;43.570;1.448;2023-02-21T07:21:14;99823.25;;;9.13;100.00
28306;BME280;7516;43.570;1.448;2023-02-21T07:23:42;99818.50;;;9.16;100.00
28306;BME280;7516;43.570;1.448;2023-02-21T07:26:10;99827.84;;;9.19;100.00
28306;BME280;7516;43.570;1.448;2023-02-21T07:28:38;99817.06;;;9.22;100.00
28306;BME280;7516;43.570;1.448;2023-02-21T07:31:06;99818.38;;;9.26;100.00
28306;BME280;7516;43.570;1.448;2023-02-21T07:33:33;99815.59;;;9.27;100.00
28306;BME280;7516;43.570;1.448;2023-02-21T07:36:02;99826.72;;;9.29;100.00
28306;BME280;7516;43.570;1.448;2023-02-21T07:38:31;99838.66;;;9.32;100.00
28306;BME280;7516;43.570;1.448;2023-02-21T07:41:00;99848.78;;;9.35;100.00
28306;BME280;7516;43.570;1.448;2023-02-21T07:43:30;99848.47;;;9.38;100.00
28306;BME280;7516;43.570;1.448;2023-02-21T07:45:58;99859.41;;;9.41;100.00
28306;BME280;7516;43.570;1.448;2023-02-21T07:48:25;99863.19;;;9.47;100.00
28306;BME280;7516;43.570;1.448;2023-02-21T07:50:53;99873.66;;;9.47;100.00
28306;BME280;7516;43.570;1.448;2023-02-21T07:53:20;99868.91;;;9.51;100.00
28306;BME280;7516;43.570;1.448;2023-02-21T07:55:49;99854.69;;;9.53;100.00
28306;BME280;7516;43.570;1.448;2023-02-21T07:58:17;99857.00;;;9.56;100.00
28306;BME280;7516;43.570;1.448;2023-02-21T08:00:44;99876.47;;;9.62;100.00
28306;BME280;7516;43.570;1.448;2023-02-21T08:03:13;99874.34;;;9.65;100.00
28306;BME280;7516;43.570;1.448;2023-02-21T08:05:40;99876.63;;;9.68;100.00
28306;BME280;7516;43.570;1.448;2023-02-21T08:08:08;99875.63;;;9.69;100.00
28306;BME280;7516;43.570;1.448;2023-02-21T08:10:35;99881.22;;;9.74;100.00
28306;BME280;7516;43.570;1.448;2023-02-21T08:13:05;99886.31;;;9.76;100.00
28306;BME280;7516;43.570;1.448;2023-02-21T08:15:32;99883.50;;;9.77;100.00
28306;BME280;7516;43.570;1.448;2023-02-21T08:18:00;99876.47;;;9.78;100.00
28306;BME280;7516;43.570;1.448;2023-02-21T08:20:27;99879.91;;;9.78;100.00
28306;BME280;7516;43.570;1.448;2023-02-21T08:22:55;99878.78;;;9.81;100.00
28306;BME280;7516;43.570;1.448;2023-02-21T08:25:23;99869.13;;;9.81;100.00
28306;BME280;7516;43.570;1.448;2023-02-21T08:27:50;99874.19;;;9.83;100.00
28306;BME280;7516;43.570;1.448;2023-02-21T08:30:22;99875.84;;;9.84;100.00
28306;BME280;7516;43.570;1.448;2023-02-21T08:32:50;99876.31;;;9.88;100.00
28306;BME280;7516;43.570;1.448;2023-02-21T08:35:18;99879.59;;;9.90;100.00
28306;BME280;7516;43.570;1.448;2023-02-21T08:37:47;99873.22;;;9.92;100.00
28306;BME280;7516;43.570;1.448;2023-02-21T08:40:17;99870.09;;;9.97;100.00
28306;BME280;7516;43.570;1.448;2023-02-21T08:42:48;99874.66;;;10.03;100.00
28306;BME280;7516;43.570;1.448;2023-02-21T08:45:18;99870.44;;;10.10;100.00
28306;BME280;7516;43.570;1.448;2023-02-21T08:47:47;99874.19;;;10.15;100.00
28306;BME280;7516;43.570;1.448;2023-02-21T08:50:15;99877.13;;;10.21;100.00
28306;BME280;7516;43.570;1.448;2023-02-21T08:52:45;99875.50;;;10.28;100.00
28306;BME280;7516;43.570;1.448;2023-02-21T08:55:13;99876.63;;;10.33;100.00
28306;BME280;7516;43.570;1.448;2023-02-21T08:57:40;99884.03;;;10.38;100.00
28306;BME280;7516;43.570;1.448;2023-02-21T09:00:09;99889.72;;;10.41;100.00
28306;BME280;7516;43.570;1.448;2023-02-21T09:02:37;99882.38;;;10.45;100.00
28306;BME280;7516;43.570;1.448;2023-02-21T09:05:08;99885.44;;;10.48;100.00
28306;BME280;7516;43.570;1.448;2023-02-21T09:07:37;99878.25;;;10.50;100.00
28306;BME280;7516;43.570;1.448;2023-02-21T09:10:05;99869.91;;;10.55;100.00
28306;BME280;7516;43.570;1.448;2023-02-21T09:12:35;99887.72;;;10.60;100.00
28306;BME280;7516;43.570;1.448;2023-02-21T09:15:02;99881.16;;;10.64;100.00
28306;BME280;7516;43.570;1.448;2023-02-21T09:17:30;99877.06;;;10.69;100.00
28306;BME280;7516;43.570;1.448;2023-02-21T09:19:59;99876.53;;;10.74;100.00
28306;BME280;7516;43.570;1.448;2023-02-21T09:22:28;99880.75;;;10.83;100.00
28306;BME280;7516;43.570;1.448;2023-02-21T09:24:57;99885.19;;;10.90;100.00
28306;BME280;7516;43.570;1.448;2023-02-21T09:27:25;99896.47;;;10.99;99.98
28306;BME280;7516;43.570;1.448;2023-02-21T09:30:03;99889.53;;;11.06;100.00
28306;BME280;7516;43.570;1.448;2023-02-21T09:32:31;99892.13;;;11.14;100.00
28306;BME280;7516;43.570;1.448;2023-02-21T09:35:00;99898.31;;;11.21;100.00
28306;BME280;7516;43.570;1.448;2023-02-21T09:37:29;99903.69;;;11.28;99.50
28306;BME280;7516;43.570;1.448;2023-02-21T09:39:57;99901.38;;;11.33;99.34
28306;BME280;7516;43.570;1.448;2023-02-21T09:42:28;99903.13;;;11.41;100.00
28306;BME280;7516;43.570;1.448;2023-02-21T09:44:56;99893.75;;;11.46;99.90
28306;BME280;7516;43.570;1.448;2023-02-21T09:47:28;99900.13;;;11.52;98.85
28306;BME280;7516;43.570;1.448;2023-02-21T09:50:00;99896.16;;;11.56;99.04
28306;BME280;7516;43.570;1.448;2023-02-21T09:52:33;99883.03;;;11.56;99.74
28306;BME280;7516;43.570;1.448;2023-02-21T09:55:05;99890.91;;;11.56;98.53
28306;BME280;7516;43.570;1.448;2023-02-21T09:57:35;99889.91;;;11.57;98.54
28306;BME280;7516;43.570;1.448;2023-02-21T10:00:11;99888.56;;;11.61;98.51
28306;BME280;7516;43.570;1.448;2023-02-21T10:02:51;99877.72;;;11.64;97.83
28306;BME280;7516;43.570;1.448;2023-02-21T10:05:30;99882.25;;;11.70;98.07
28306;BME280;7516;43.570;1.448;2023-02-21T10:08:05;99876.81;;;11.80;97.65
28306;BME280;7516;43.570;1.448;2023-02-21T10:10:41;99876.56;;;11.89;97.18
28306;BME280;7516;43.570;1.448;2023-02-21T10:13:21;99872.25;;;11.96;98.54
28306;BME280;7516;43.570;1.448;2023-02-21T10:15:53;99871.56;;;12.02;98.10
28306;BME280;7516;43.570;1.448;2023-02-21T10:18:30;99875.75;;;12.12;98.39
28306;BME280;7516;43.570;1.448;2023-02-21T10:21:02;99869.13;;;12.16;96.43
28306;BME280;7516;43.570;1.448;2023-02-21T10:23:36;99859.72;;;12.21;97.74
28306;BME280;7516;43.570;1.448;2023-02-21T10:26:06;99869.69;;;12.26;97.74
28306;BME280;7516;43.570;1.448;2023-02-21T10:28:35;99863.91;;;12.30;97.00
28306;BME280;7516;43.570;1.448;2023-02-21T10:31:06;99870.44;;;12.34;96.68
28306;BME280;7516;43.570;1.448;2023-02-21T10:33:37;99869.69;;;12.40;96.54
28306;BME280;7516;43.570;1.448;2023-02-21T10:36:11;99870.81;;;12.46;97.12
28306;BME280;7516;43.570;1.448;2023-02-21T10:38:46;99875.16;;;12.54;96.64
28306;BME280;7516;43.570;1.448;2023-02-21T10:41:19;99865.56;;;12.61;94.97
28306;BME280;7516;43.570;1.448;2023-02-21T10:43:49;99865.28;;;12.70;96.28
28306;BME280;7516;43.570;1.448;2023-02-21T10:46:24;99865.53;;;12.75;94.39
28306;BME280;7516;43.570;1.448;2023-02-21T10:48:58;99867.81;;;12.78;96.01
28306;BME280;7516;43.570;1.448;2023-02-21T10:51:32;99875.19;;;12.83;95.93
28306;BME280;7516;43.570;1.448;2023-02-21T10:54:17;99881.69;;;12.87;94.69
28306;BME280;7516;43.570;1.448;2023-02-21T10:56:46;99871.63;;;12.91;94.21
28306;BME280;7516;43.570;1.448;2023-02-21T10:59:21;99876.50;;;12.94;94.23
28306;BME280;7516;43.570;1.448;2023-02-21T11:01:52;99873.69;;;12.95;95.29
28306;BME280;7516;43.570;1.448;2023-02-21T11:04:33;99878.78;;;12.97;94.69
28306;BME280;7516;43.570;1.448;2023-02-21T11:07:05;99882.69;;;13.01;93.41
28306;BME280;7516;43.570;1.448;2023-02-21T11:09:37;99883.94;;;13.05;93.73
28306;BME280;7516;43.570;1.448;2023-02-21T11:12:20;99882.41;;;13.10;94.06
28306;BME280;7516;43.570;1.448;2023-02-21T11:15:16;99886.94;;;13.16;93.39
28306;BME280;7516;43.570;1.448;2023-02-21T11:17:44;99890.84;;;13.21;94.05
28306;BME280;7516;43.570;1.448;2023-02-21T11:20:17;99885.84;;;13.26;93.54
28306;BME280;7516;43.570;1.448;2023-02-21T11:22:46;99875.75;;;13.29;93.78
28306;BME280;7516;43.570;1.448;2023-02-21T11:25:24;99875.84;;;13.36;92.26
28306;BME280;7516;43.570;1.448;2023-02-21T11:28:03;99868.38;;;13.39;93.09
28306;BME280;7516;43.570;1.448;2023-02-21T11:30:33;99873.09;;;13.44;92.55
28306;BME280;7516;43.570;1.448;2023-02-21T11:33:02;99858.72;;;13.46;93.15
28306;BME280;7516;43.570;1.448;2023-02-21T11:35:33;99865.63;;;13.47;92.36
28306;BME280;7516;43.570;1.448;2023-02-21T11:38:03;99859.34;;;13.48;91.33
28306;BME280;7516;43.570;1.448;2023-02-21T11:40:40;99847.81;;;13.49;92.41
28306;BME280;7516;43.570;1.448;2023-02-21T11:43:18;99842.19;;;13.52;92.31
28306;BME280;7516;43.570;1.448;2023-02-21T11:46:02;99840.81;;;13.56;91.00
28306;BME280;7516;43.570;1.448;2023-02-21T11:48:34;99843.69;;;13.62;90.77
28306;BME280;7516;43.570;1.448;2023-02-21T11:51:07;99838.03;;;13.65;91.51
28306;BME280;7516;43.570;1.448;2023-02-21T11:53:42;99830.41;;;13.70;91.43
28306;BME280;7516;43.570;1.448;2023-02-21T11:56:23;99822.75;;;13.75;90.53
28306;BME280;7516;43.570;1.448;2023-02-21T11:59:00;99824.00;;;13.79;89.96
28306;BME280;7516;43.570;1.448;2023-02-21T12:01:34;99814.69;;;13.83;90.63
28306;BME280;7516;43.570;1.448;2023-02-21T12:07:01;99808.47;;;13.90;91.08
28306;BME280;7516;43.570;1.448;2023-02-21T12:09:37;99814.38;;;13.92;90.29
28306;BME280;7516;43.570;1.448;2023-02-21T12:12:28;99819.91;;;13.98;90.06
28306;BME280;7516;43.570;1.448;2023-02-21T12:15:09;99820.31;;;14.01;89.51
28306;BME280;7516;43.570;1.448;2023-02-21T12:18:03;99834.75;;;14.05;88.87
28306;BME280;7516;43.570;1.448;2023-02-21T12:20:50;99831.16;;;14.13;89.36
28306;BME280;7516;43.570;1.448;2023-02-21T12:23:27;99822.66;;;14.17;89.78
28306;BME280;7516;43.570;1.448;2023-02-21T12:26:09;99817.63;;;14.22;88.94
28306;BME280;7516;43.570;1.448;2023-02-21T12:28:55;99809.72;;;14.22;88.25
28306;BME280;7516;43.570;1.448;2023-02-21T12:31:33;99813.00;;;14.24;87.72
28306;BME280;7516;43.570;1.448;2023-02-21T12:34:18;99815.00;;;14.22;87.53
28306;BME280;7516;43.570;1.448;2023-02-21T12:37:13;99815.38;;;14.19;87.92
28306;BME280;7516;43.570;1.448;2023-02-21T12:40:07;99809.47;;;14.17;88.77
28306;BME280;7516;43.570;1.448;2023-02-21T12:43:02;99802.97;;;14.13;88.17
28306;BME280;7516;43.570;1.448;2023-02-21T12:45:49;99800.34;;;14.13;88.66
28306;BME280;7516;43.570;1.448;2023-02-21T12:48:26;99790.81;;;14.12;88.19
28306;BME280;7516;43.570;1.448;2023-02-21T12:50:59;99776.00;;;14.11;87.56
28306;BME280;7516;43.570;1.448;2023-02-21T12:53:32;99776.00;;;14.11;87.89
28306;BME280;7516;43.570;1.448;2023-02-21T12:56:06;99767.47;;;14.09;87.94
28306;BME280;7516;43.570;1.448;2023-02-21T12:58:39;99762.19;;;14.09;87.81
28306;BME280;7516;43.570;1.448;2023-02-21T13:01:14;99752.28;;;14.11;87.66
28306;BME280;7516;43.570;1.448;2023-02-21T13:03:51;99754.72;;;14.13;86.74
28306;BME280;7516;43.570;1.448;2023-02-21T13:06:25;99756.75;;;14.17;87.49
28306;BME280;7516;43.570;1.448;2023-02-21T13:09:02;99754.19;;;14.24;86.82
28306;BME280;7516;43.570;1.448;2023-02-21T13:11:36;99755.22;;;14.29;87.41
28306;BME280;7516;43.570;1.448;2023-02-21T13:14:09;99746.53;;;14.36;87.08
28306;BME280;7516;43.570;1.448;2023-02-21T13:16:39;99754.25;;;14.37;86.88
28306;BME280;7516;43.570;1.448;2023-02-21T13:19:09;99743.53;;;14.39;86.79
28306;BME280;7516;43.570;1.448;2023-02-21T13:21:54;99748.63;;;14.40;86.13
28306;BME280;7516;43.570;1.448;2023-02-21T13:24:35;99740.72;;;14.40;86.18
28306;BME280;7516;43.570;1.448;2023-02-21T13:27:33;99737.59;;;14.37;86.16
28306;BME280;7516;43.570;1.448;2023-02-21T13:30:13;99727.25;;;14.35;85.72
28306;BME280;7516;43.570;1.448;2023-02-21T13:32:50;99720.97;;;14.36;86.35
28306;BME280;7516;43.570;1.448;2023-02-21T13:35:24;99719.44;;;14.42;86.11
28306;BME280;7516;43.570;1.448;2023-02-21T13:37:52;99720.25;;;14.49;86.17
28306;BME280;7516;43.570;1.448;2023-02-21T13:40:24;99719.06;;;14.58;85.70
28306;BME280;7516;43.570;1.448;2023-02-21T13:43:05;99705.72;;;14.66;85.45
28306;BME280;7516;43.570;1.448;2023-02-21T13:45:33;99711.00;;;14.73;84.57
28306;BME280;7516;43.570;1.448;2023-02-21T13:48:23;99698.25;;;14.76;85.03
28306;BME280;7516;43.570;1.448;2023-02-21T13:50:52;99706.53;;;14.80;84.54
28306;BME280;7516;43.570;1.448;2023-02-21T13:53:21;99705.34;;;14.82;84.71